createdAt,value
2019-05-19T00:00:54.368Z,92.32
2019-05-19T00:01:54.367Z,92.87
2019-05-19T00:02:54.385Z,93.89
2019-05-19T00:03:54.335Z,94.40
2019-05-19T00:04:54.321Z,94.29
2019-05-19T00:05:54.313Z,94.95
2019-05-19T00:06:54.303Z,94.50
2019-05-19T00:07:54.327Z,94.50
2019-05-19T00:08:54.279Z,94.70
2019-05-19T00:09:54.278Z,94.60
2019-05-19T00:10:54.267Z,94.70
2019-05-19T00:11:54.245Z,94.29
2019-05-19T00:12:54.249Z,94.50
2019-05-19T00:13:54.241Z,94.29
2019-05-19T00:14:54.214Z,94.29
2019-05-19T00:15:54.200Z,94.24
2019-05-19T00:16:54.191Z,94.29
2019-05-19T00:17:54.179Z,94.09
2019-05-19T00:18:54.168Z,94.24
2019-05-19T00:19:54.157Z,94.40
2019-05-19T00:20:54.148Z,94.09
2019-05-19T00:21:54.131Z,94.60
2019-05-19T00:22:54.119Z,94.29
2019-05-19T00:23:54.109Z,94.40
2019-05-19T00:24:54.105Z,93.73
2019-05-19T00:25:54.085Z,93.89
2019-05-19T00:26:54.080Z,94.09
2019-05-19T00:27:54.078Z,94.70
2019-05-19T00:28:54.059Z,94.20
2019-05-19T00:29:54.046Z,94.54
2019-05-19T00:30:54.043Z,94.54
2019-05-19T00:31:54.023Z,94.64
2019-05-19T00:32:54.011Z,95.01
2019-05-19T00:33:54.008Z,94.70
2019-05-19T00:34:53.986Z,93.99
2019-05-19T00:35:53.977Z,93.79
2019-05-19T00:36:53.968Z,92.77
2019-05-19T00:37:53.966Z,91.41
2019-05-19T00:38:53.951Z,91.61
2019-05-19T00:39:53.941Z,91.82
2019-05-19T00:40:53.936Z,91.71
2019-05-19T00:41:53.911Z,91.51
2019-05-19T00:42:53.905Z,91.82
2019-05-19T00:43:53.889Z,92.63
2019-05-19T00:44:53.879Z,91.65
2019-05-19T00:45:53.870Z,91.51
2019-05-19T00:46:53.854Z,91.71
2019-05-19T00:47:53.846Z,91.20
2019-05-19T00:48:53.835Z,91.71
2019-05-19T00:49:53.823Z,91.51
2019-05-19T00:50:53.832Z,91.30
2019-05-19T00:51:53.805Z,92.06
2019-05-19T00:52:53.797Z,92.93
2019-05-19T00:53:53.774Z,92.67
2019-05-19T00:54:53.768Z,92.87
2019-05-19T00:55:53.755Z,93.79
2019-05-19T00:56:53.743Z,93.99
2019-05-19T00:57:53.735Z,93.59
2019-05-19T00:58:53.717Z,94.50
2019-05-19T00:59:53.707Z,94.44
2019-05-19T01:00:53.699Z,94.74
2019-05-19T01:01:53.689Z,94.34
2019-05-19T01:02:53.683Z,94.64
2019-05-19T01:03:53.669Z,94.54
2019-05-19T01:04:53.651Z,94.34
2019-05-19T01:05:53.646Z,94.70
2019-05-19T01:06:53.639Z,94.29
2019-05-19T01:07:53.624Z,94.24
2019-05-19T01:08:53.612Z,94.34
2019-05-19T01:09:53.609Z,94.29
2019-05-19T01:10:53.593Z,94.09
2019-05-19T01:11:53.585Z,94.50
2019-05-19T01:12:53.563Z,94.44
2019-05-19T01:13:53.579Z,94.29
2019-05-19T01:14:53.543Z,94.34
2019-05-19T01:15:53.538Z,94.44
2019-05-19T01:16:53.518Z,94.34
2019-05-19T01:17:53.511Z,94.13
2019-05-19T01:18:53.502Z,94.29
2019-05-19T01:19:55.944Z,94.29
2019-05-19T01:20:53.480Z,94.44
2019-05-19T01:21:53.463Z,94.24
2019-05-19T01:22:53.453Z,94.70
2019-05-19T01:23:53.464Z,94.74
2019-05-19T01:24:53.425Z,94.44
2019-05-19T01:25:53.419Z,94.60
2019-05-19T01:26:53.409Z,94.24
2019-05-19T01:27:53.402Z,94.34
2019-05-19T01:28:53.385Z,94.09
2019-05-19T01:29:53.370Z,94.44
2019-05-19T01:30:53.365Z,93.89
2019-05-19T01:31:53.350Z,93.79
2019-05-19T01:32:53.339Z,94.13
2019-05-19T01:33:53.334Z,94.34
2019-05-19T01:34:53.325Z,94.74
2019-05-19T01:35:53.319Z,94.60
2019-05-19T01:36:53.300Z,94.60
2019-05-19T01:37:53.292Z,94.64
2019-05-19T01:38:53.274Z,93.63
2019-05-19T01:39:53.265Z,93.68
2019-05-19T01:40:53.259Z,94.29
2019-05-19T01:41:53.241Z,94.09
2019-05-19T01:42:53.259Z,94.29
2019-05-19T01:43:53.221Z,94.29
2019-05-19T01:44:53.238Z,93.99
2019-05-19T01:45:53.196Z,94.40
2019-05-19T01:46:53.305Z,94.40
2019-05-19T01:47:53.174Z,94.54
2019-05-19T01:48:53.162Z,94.74
2019-05-19T01:49:53.159Z,94.74
2019-05-19T01:50:53.144Z,94.85
2019-05-19T01:51:53.127Z,94.44
2019-05-19T01:52:53.127Z,94.54
2019-05-19T01:53:53.108Z,94.64
2019-05-19T01:54:53.121Z,94.95
2019-05-19T01:55:53.083Z,94.95
2019-05-19T01:56:53.074Z,94.44
2019-05-19T01:57:53.074Z,94.74
2019-05-19T01:58:53.048Z,94.24
2019-05-19T01:59:53.043Z,94.44
2019-05-19T02:00:53.034Z,94.24
2019-05-19T02:01:53.020Z,94.34
2019-05-19T02:02:53.004Z,94.74
2019-05-19T02:03:52.992Z,94.34
2019-05-19T02:04:52.983Z,94.54
2019-05-19T02:05:53.013Z,94.64
2019-05-19T02:06:52.960Z,95.05
2019-05-19T02:07:52.948Z,95.30
2019-05-19T02:08:52.962Z,95.66
2019-05-19T02:09:52.929Z,96.22
2019-05-19T02:10:52.920Z,96.11
2019-05-19T02:11:52.909Z,96.01
2019-05-19T02:12:52.894Z,95.81
2019-05-19T02:13:52.885Z,96.01
2019-05-19T02:14:52.877Z,96.42
2019-05-19T02:15:52.863Z,96.31
2019-05-19T02:16:52.851Z,96.52
2019-05-19T02:17:52.836Z,96.22
2019-05-19T02:18:52.834Z,96.72
2019-05-19T02:19:52.827Z,96.92
2019-05-19T02:20:52.805Z,96.52
2019-05-19T02:21:52.798Z,96.26
2019-05-19T02:22:52.783Z,97.23
2019-05-19T02:23:52.770Z,96.62
2019-05-19T02:24:52.762Z,96.83
2019-05-19T02:25:52.762Z,96.42
2019-05-19T02:26:52.740Z,97.03
2019-05-19T02:27:52.727Z,96.62
2019-05-19T02:28:52.714Z,97.03
2019-05-19T02:29:52.705Z,97.44
2019-05-19T02:30:52.693Z,97.53
2019-05-19T02:31:52.687Z,97.03
2019-05-19T02:32:52.676Z,96.83
2019-05-19T02:33:52.680Z,96.83
2019-05-19T02:34:52.667Z,96.22
2019-05-19T02:35:52.649Z,96.22
2019-05-19T02:36:52.626Z,96.56
2019-05-19T02:37:52.616Z,95.85
2019-05-19T02:38:52.603Z,96.31
2019-05-19T02:39:52.587Z,95.81
2019-05-19T02:40:52.588Z,95.81
2019-05-19T02:41:52.586Z,96.22
2019-05-19T02:42:52.583Z,96.42
2019-05-19T02:43:52.548Z,95.81
2019-05-19T02:44:52.534Z,96.42
2019-05-19T02:45:52.525Z,95.91
2019-05-19T02:46:52.514Z,96.22
2019-05-19T02:47:52.501Z,96.56
2019-05-19T02:48:52.499Z,96.52
2019-05-19T02:49:52.484Z,96.11
2019-05-19T02:50:53.068Z,96.01
2019-05-19T02:51:52.458Z,96.11
2019-05-19T02:52:52.484Z,95.81
2019-05-19T02:53:52.431Z,95.65
2019-05-19T02:54:52.422Z,95.61
2019-05-19T02:55:52.413Z,95.61
2019-05-19T02:56:52.401Z,95.50
2019-05-19T02:57:52.394Z,94.89
2019-05-19T02:58:52.377Z,95.00
2019-05-19T02:59:52.370Z,94.59
2019-05-19T03:00:52.357Z,94.89
2019-05-19T03:01:52.355Z,95.61
2019-05-19T03:02:52.340Z,95.00
2019-05-19T03:03:52.329Z,95.30
2019-05-19T03:04:52.321Z,95.81
2019-05-19T03:05:52.303Z,94.89
2019-05-19T03:06:52.287Z,95.00
2019-05-19T03:07:52.281Z,94.79
2019-05-19T03:08:52.287Z,95.50
2019-05-19T03:09:52.265Z,95.40
2019-05-19T03:10:52.248Z,95.20
2019-05-19T03:11:52.236Z,95.20
2019-05-19T03:12:52.230Z,95.09
2019-05-19T03:13:52.215Z,95.65
2019-05-19T03:14:52.202Z,95.50
2019-05-19T03:15:52.193Z,95.61
2019-05-19T03:16:52.180Z,95.30
2019-05-19T03:17:52.165Z,95.00
2019-05-19T03:18:52.159Z,95.30
2019-05-19T03:19:52.147Z,95.40
2019-05-19T03:21:09.413Z,95.50
2019-05-19T03:21:53.122Z,95.61
2019-05-19T03:22:52.114Z,95.20
2019-05-19T03:23:52.102Z,95.30
2019-05-19T03:24:52.090Z,95.40
2019-05-19T03:25:52.082Z,95.09
2019-05-19T03:26:52.066Z,95.20
2019-05-19T03:27:52.065Z,95.91
2019-05-19T03:28:52.056Z,95.09
2019-05-19T03:29:52.039Z,95.00
2019-05-19T03:30:52.049Z,95.09
2019-05-19T03:31:52.022Z,95.61
2019-05-19T03:32:52.003Z,95.70
2019-05-19T03:33:51.991Z,95.61
2019-05-19T03:34:51.977Z,95.85
2019-05-19T03:35:51.976Z,96.01
2019-05-19T03:36:51.955Z,96.11
2019-05-19T03:37:51.947Z,95.81
2019-05-19T03:38:51.937Z,96.11
2019-05-19T03:39:51.934Z,96.31
2019-05-19T03:40:51.913Z,95.91
2019-05-19T03:41:51.905Z,96.06
2019-05-19T03:42:51.890Z,96.01
2019-05-19T03:43:51.875Z,96.22
2019-05-19T03:44:51.864Z,96.42
2019-05-19T03:45:51.851Z,96.22
2019-05-19T03:46:51.842Z,96.11
2019-05-19T03:47:51.835Z,96.56
2019-05-19T03:48:51.822Z,97.13
2019-05-19T03:49:51.813Z,96.62
2019-05-19T03:50:51.805Z,96.56
2019-05-19T03:51:51.795Z,96.97
2019-05-19T03:52:51.781Z,97.07
2019-05-19T03:53:51.773Z,96.97
2019-05-19T03:54:51.756Z,96.97
2019-05-19T03:55:51.757Z,97.03
2019-05-19T03:56:51.733Z,96.97
2019-05-19T03:57:51.725Z,96.77
2019-05-19T03:58:51.709Z,96.52
2019-05-19T03:59:51.709Z,96.56
2019-05-19T04:00:51.688Z,96.72
2019-05-19T04:01:51.680Z,96.62
2019-05-19T04:02:51.667Z,96.97
2019-05-19T04:03:51.651Z,97.38
2019-05-19T04:04:51.646Z,96.92
2019-05-19T04:05:51.636Z,96.77
2019-05-19T04:06:51.625Z,97.33
2019-05-19T04:07:51.606Z,96.77
2019-05-19T04:08:51.598Z,97.03
2019-05-19T04:09:51.588Z,97.53
2019-05-19T04:10:51.578Z,97.07
2019-05-19T04:11:51.562Z,96.97
2019-05-19T04:12:51.553Z,96.72
2019-05-19T04:13:51.541Z,96.87
2019-05-19T04:14:51.532Z,96.72
2019-05-19T04:15:51.516Z,96.56
2019-05-19T04:16:51.516Z,96.77
2019-05-19T04:17:51.496Z,97.33
2019-05-19T04:18:51.492Z,97.07
2019-05-19T04:19:51.478Z,97.03
2019-05-19T04:20:51.463Z,97.28
2019-05-19T04:21:51.451Z,96.92
2019-05-19T04:22:51.454Z,97.38
2019-05-19T04:23:51.430Z,96.97
2019-05-19T04:24:51.420Z,97.23
2019-05-19T04:25:51.407Z,97.69
2019-05-19T04:26:51.402Z,97.48
2019-05-19T04:27:51.383Z,97.53
2019-05-19T04:28:51.380Z,97.89
2019-05-19T04:29:51.364Z,97.69
2019-05-19T04:30:51.354Z,97.58
2019-05-19T04:31:51.353Z,97.89
2019-05-19T04:32:51.332Z,97.69
2019-05-19T04:33:51.319Z,97.78
2019-05-19T04:34:51.314Z,97.69
2019-05-19T04:35:51.302Z,97.78
2019-05-19T04:36:51.293Z,97.78
2019-05-19T04:37:51.275Z,97.78
2019-05-19T04:38:51.259Z,97.78
2019-05-19T04:39:51.251Z,97.58
2019-05-19T04:40:51.241Z,97.78
2019-05-19T04:41:51.234Z,97.69
2019-05-19T04:42:51.217Z,97.48
2019-05-19T04:43:51.210Z,97.78
2019-05-19T04:44:51.249Z,97.38
2019-05-19T04:45:51.186Z,97.69
2019-05-19T04:46:51.176Z,97.69
2019-05-19T04:47:51.165Z,97.58
2019-05-19T04:48:51.148Z,97.58
2019-05-19T04:49:51.183Z,97.69
2019-05-19T04:50:51.154Z,97.78
2019-05-19T04:52:05.515Z,97.38
2019-05-19T04:52:52.103Z,97.48
2019-05-19T04:53:51.093Z,97.03
2019-05-19T04:54:51.084Z,96.92
2019-05-19T04:55:51.071Z,97.13
2019-05-19T04:56:51.065Z,97.33
2019-05-19T04:57:51.048Z,97.03
2019-05-19T04:58:51.036Z,97.33
2019-05-19T04:59:51.056Z,96.97
2019-05-19T05:00:51.019Z,97.03
2019-05-19T05:01:51.009Z,96.92
2019-05-19T05:02:50.994Z,96.72
2019-05-19T05:03:50.982Z,97.17
2019-05-19T05:04:50.970Z,97.33
2019-05-19T05:05:50.960Z,97.28
2019-05-19T05:06:50.952Z,97.38
2019-05-19T05:07:50.939Z,97.13
2019-05-19T05:08:50.928Z,97.13
2019-05-19T05:09:50.917Z,97.13
2019-05-19T05:10:50.945Z,97.53
2019-05-19T05:11:50.895Z,97.44
2019-05-19T05:12:50.885Z,97.44
2019-05-19T05:13:50.873Z,97.33
2019-05-19T05:14:50.862Z,97.33
2019-05-19T05:15:50.847Z,97.64
2019-05-19T05:16:50.837Z,97.33
2019-05-19T05:17:50.826Z,97.33
2019-05-19T05:18:50.819Z,97.64
2019-05-19T05:19:50.810Z,97.64
2019-05-19T05:20:50.809Z,97.44
2019-05-19T05:21:50.787Z,97.33
2019-05-19T05:22:50.770Z,97.03
2019-05-19T05:23:50.761Z,97.03
2019-05-19T05:24:50.760Z,97.03
2019-05-19T05:25:50.744Z,97.23
2019-05-19T05:26:50.735Z,97.49
2019-05-19T05:27:50.716Z,96.88
2019-05-19T05:28:50.706Z,96.78
2019-05-19T05:29:50.695Z,96.58
2019-05-19T05:30:50.693Z,97.39
2019-05-19T05:31:50.677Z,96.94
2019-05-19T05:32:50.662Z,96.53
2019-05-19T05:33:50.655Z,96.53
2019-05-19T05:34:50.640Z,96.63
2019-05-19T05:35:50.628Z,96.63
2019-05-19T05:36:50.616Z,96.33
2019-05-19T05:37:50.604Z,96.53
2019-05-19T05:38:50.606Z,95.92
2019-05-19T05:39:50.586Z,96.02
2019-05-19T05:40:50.572Z,95.72
2019-05-19T05:41:50.563Z,96.12
2019-05-19T05:42:50.562Z,96.33
2019-05-19T05:43:50.541Z,96.33
2019-05-19T05:44:50.529Z,96.48
2019-05-19T05:45:50.513Z,95.31
2019-05-19T05:46:50.504Z,96.23
2019-05-19T05:47:50.507Z,95.98
2019-05-19T05:48:50.535Z,95.67
2019-05-19T05:49:50.476Z,95.72
2019-05-19T05:50:50.468Z,95.87
2019-05-19T05:51:50.458Z,95.67
2019-05-19T05:52:50.440Z,96.23
2019-05-19T05:53:50.424Z,95.87
2019-05-19T05:54:50.415Z,96.08
2019-05-19T05:55:50.404Z,95.82
2019-05-19T05:56:50.398Z,95.62
2019-05-19T05:57:50.383Z,95.82
2019-05-19T05:58:50.375Z,95.31
2019-05-19T05:59:50.362Z,96.08
2019-05-19T06:00:50.351Z,95.67
2019-05-19T06:01:50.337Z,96.08
2019-05-19T06:02:50.330Z,95.87
2019-05-19T06:03:50.314Z,95.73
2019-05-19T06:04:50.317Z,95.98
2019-05-19T06:05:50.298Z,95.67
2019-05-19T06:06:50.289Z,95.78
2019-05-19T06:07:50.273Z,95.57
2019-05-19T06:08:50.265Z,95.78
2019-05-19T06:09:50.256Z,95.78
2019-05-19T06:10:50.245Z,95.22
2019-05-19T06:11:50.227Z,95.26
2019-05-19T06:12:50.213Z,95.26
2019-05-19T06:13:50.213Z,94.66
2019-05-19T06:14:50.195Z,95.37
2019-05-19T06:15:50.186Z,95.17
2019-05-19T06:16:50.179Z,95.17
2019-05-19T06:17:50.175Z,95.37
2019-05-19T06:18:50.155Z,95.26
2019-05-19T06:19:50.149Z,94.76
2019-05-19T06:20:50.132Z,94.86
2019-05-19T06:21:50.116Z,94.66
2019-05-19T06:22:56.700Z,94.66
2019-05-19T06:23:51.099Z,94.56
2019-05-19T06:24:50.087Z,94.61
2019-05-19T06:25:50.073Z,94.41
2019-05-19T06:26:50.071Z,94.61
2019-05-19T06:27:50.054Z,94.61
2019-05-19T06:28:50.042Z,94.71
2019-05-19T06:29:50.080Z,95.07
2019-05-19T06:30:50.025Z,94.87
2019-05-19T06:31:50.048Z,95.07
2019-05-19T06:32:50.003Z,95.03
2019-05-19T06:33:49.990Z,94.87
2019-05-19T06:34:49.995Z,94.46
2019-05-19T06:35:49.968Z,95.23
2019-05-19T06:36:49.950Z,94.78
2019-05-19T06:37:49.950Z,94.58
2019-05-19T06:39:07.761Z,94.68
2019-05-19T06:40:07.639Z,94.34
2019-05-19T06:41:38.209Z,94.54
2019-05-19T06:42:38.177Z,94.90
2019-05-19T06:44:10.744Z,94.29
2019-05-19T06:45:08.717Z,94.13
2019-05-19T06:46:08.713Z,93.99
2019-05-19T06:47:08.706Z,94.39
2019-05-19T06:48:08.698Z,93.99
2019-05-19T06:49:08.677Z,93.93
2019-05-19T06:50:08.681Z,94.13
2019-05-19T06:51:08.654Z,93.62
2019-05-19T06:52:08.642Z,94.03
2019-05-19T06:53:14.219Z,94.07
2019-05-19T06:54:09.636Z,94.18
2019-05-19T06:55:08.615Z,94.34
2019-05-19T06:56:08.604Z,95.09
2019-05-19T06:57:08.599Z,94.38
2019-05-19T06:58:08.590Z,94.48
2019-05-19T06:59:08.567Z,94.42
2019-05-19T07:00:08.565Z,94.73
2019-05-19T07:01:08.548Z,94.73
2019-05-19T07:02:08.539Z,95.18
2019-05-19T07:03:08.559Z,95.58
2019-05-19T07:04:08.523Z,95.79
2019-05-19T07:05:08.500Z,95.32
2019-05-19T07:06:08.489Z,95.83
2019-05-19T07:07:08.578Z,95.73
2019-05-19T07:08:08.477Z,95.67
2019-05-19T07:09:08.713Z,96.14
2019-05-19T07:10:08.466Z,95.94
2019-05-19T07:11:08.434Z,95.73
2019-05-19T07:12:08.422Z,96.08
2019-05-19T07:13:08.408Z,95.67
2019-05-19T07:14:08.401Z,95.98
2019-05-19T07:15:08.401Z,95.67
2019-05-19T07:16:08.388Z,95.98
2019-05-19T07:17:08.363Z,95.67
2019-05-19T07:18:08.357Z,95.57
2019-05-19T07:19:08.342Z,95.57
2019-05-19T07:20:08.348Z,96.03
2019-05-19T07:21:08.324Z,95.83
2019-05-19T07:22:08.302Z,95.83
2019-05-19T07:23:08.287Z,95.79
2019-05-19T07:24:08.288Z,95.23
2019-05-19T07:25:08.269Z,95.50
2019-05-19T07:26:08.259Z,95.50
2019-05-19T07:27:08.257Z,94.84
2019-05-19T07:28:08.244Z,94.43
2019-05-19T07:29:08.238Z,94.38
2019-05-19T07:30:08.217Z,93.26
2019-05-19T07:31:08.246Z,92.65
2019-05-19T07:32:08.218Z,92.86
2019-05-19T07:33:08.194Z,92.55
2019-05-19T07:34:08.183Z,92.45
2019-05-19T07:35:08.168Z,92.61
2019-05-19T07:36:08.152Z,92.65
2019-05-19T07:37:08.141Z,92.65
2019-05-19T07:38:08.131Z,91.89
2019-05-19T07:39:08.129Z,91.38
2019-05-19T07:40:08.105Z,92.90
2019-05-19T07:41:08.113Z,93.00
2019-05-19T07:42:08.108Z,92.40
2019-05-19T07:43:08.076Z,93.00
2019-05-19T07:44:08.075Z,92.54
2019-05-19T07:45:08.081Z,92.74
2019-05-19T07:46:08.065Z,92.79
2019-05-19T07:47:08.036Z,93.05
2019-05-19T07:48:08.020Z,93.70
2019-05-19T07:49:08.009Z,93.86
2019-05-19T07:50:07.996Z,94.06
2019-05-19T07:51:08.005Z,93.96
2019-05-19T07:52:07.987Z,94.06
2019-05-19T07:53:07.972Z,94.41
2019-05-19T07:54:07.960Z,94.46
2019-05-19T07:55:07.946Z,94.26
2019-05-19T07:56:07.927Z,94.57
2019-05-19T07:57:07.919Z,94.37
2019-05-19T07:58:07.925Z,94.22
2019-05-19T07:59:08.180Z,94.42
2019-05-19T08:00:08.160Z,94.32
2019-05-19T08:01:07.877Z,94.18
2019-05-19T08:02:07.860Z,94.18
2019-05-19T08:03:07.885Z,93.30
2019-05-19T08:04:07.874Z,93.61
2019-05-19T08:05:07.839Z,93.71
2019-05-19T08:06:07.883Z,94.12
2019-05-19T08:07:07.830Z,93.91
2019-05-19T08:08:07.806Z,94.57
2019-05-19T08:09:07.789Z,94.37
2019-05-19T08:10:07.783Z,94.17
2019-05-19T08:11:07.790Z,94.31
2019-05-19T08:12:07.754Z,94.56
2019-05-19T08:13:07.738Z,94.66
2019-05-19T08:14:07.743Z,95.26
2019-05-19T08:15:07.727Z,95.67
2019-05-19T08:16:07.729Z,95.21
2019-05-19T08:17:07.710Z,95.82
2019-05-19T08:18:07.689Z,95.72
2019-05-19T08:19:07.671Z,96.23
2019-05-19T08:20:07.664Z,96.33
2019-05-19T08:21:07.670Z,96.69
2019-05-19T08:22:07.643Z,97.09
2019-05-19T08:23:07.646Z,96.69
2019-05-19T08:24:07.617Z,96.75
2019-05-19T08:25:07.595Z,96.84
2019-05-19T08:26:07.588Z,96.75
2019-05-19T08:27:07.594Z,96.95
2019-05-19T08:28:08.971Z,96.60
2019-05-19T08:29:07.571Z,96.50
2019-05-19T08:30:07.553Z,96.80
2019-05-19T08:31:07.545Z,96.25
2019-05-19T08:32:07.528Z,95.99
2019-05-19T08:33:07.522Z,95.28
2019-05-19T08:34:07.794Z,95.54
2019-05-19T08:35:07.514Z,95.39
2019-05-19T08:36:07.490Z,94.89
2019-05-19T08:37:07.473Z,94.74
2019-05-19T08:38:07.455Z,94.54
2019-05-19T08:39:07.451Z,94.48
2019-05-19T08:40:07.431Z,94.38
2019-05-19T08:41:07.431Z,94.43
2019-05-19T08:42:07.407Z,94.38
2019-05-19T08:43:07.399Z,94.64
2019-05-19T08:44:07.386Z,94.23
2019-05-19T08:45:07.387Z,94.23
2019-05-19T08:46:07.369Z,94.13
2019-05-19T08:47:07.352Z,94.03
2019-05-19T08:48:07.344Z,92.31
2019-05-19T08:49:07.333Z,92.97
2019-05-19T08:50:07.331Z,92.93
2019-05-19T08:51:07.307Z,92.32
2019-05-19T08:52:07.306Z,92.52
2019-05-19T08:53:07.289Z,92.38
2019-05-19T08:54:14.927Z,91.47
2019-05-19T08:55:08.266Z,91.53
2019-05-19T08:56:07.266Z,90.62
2019-05-19T08:57:07.254Z,91.32
2019-05-19T08:58:07.244Z,91.08
2019-05-19T08:59:07.224Z,90.94
2019-05-19T09:00:07.220Z,91.24
2019-05-19T09:01:07.199Z,89.62
2019-05-19T09:02:07.191Z,88.85
2019-05-19T09:03:07.176Z,89.46
2019-05-19T09:04:07.172Z,90.88
2019-05-19T09:05:07.177Z,90.98
2019-05-19T09:06:07.152Z,90.88
2019-05-19T09:07:07.128Z,90.67
2019-05-19T09:08:07.117Z,91.38
2019-05-19T09:09:07.118Z,91.28
2019-05-19T09:10:07.106Z,90.82
2019-05-19T09:11:07.084Z,90.96
2019-05-19T09:12:07.079Z,91.20
2019-05-19T09:13:07.070Z,92.16
2019-05-19T09:14:07.056Z,92.82
2019-05-19T09:15:07.049Z,93.73
2019-05-19T09:16:07.039Z,93.57
2019-05-19T09:17:07.033Z,94.18
2019-05-19T09:18:07.012Z,94.13
2019-05-19T09:19:07.007Z,94.18
2019-05-19T09:20:06.996Z,94.49
2019-05-19T09:21:06.973Z,94.70
2019-05-19T09:22:06.970Z,94.30
2019-05-19T09:23:06.962Z,93.79
2019-05-19T09:24:06.942Z,92.40
2019-05-19T09:25:06.936Z,92.65
2019-05-19T09:26:06.926Z,91.70
2019-05-19T09:27:06.914Z,90.55
2019-05-19T09:28:06.897Z,89.19
2019-05-19T09:29:06.892Z,89.25
2019-05-19T09:30:06.874Z,87.49
2019-05-19T09:31:06.869Z,88.00
2019-05-19T09:32:06.853Z,87.01
2019-05-19T09:33:06.845Z,87.27
2019-05-19T09:34:06.831Z,87.02
2019-05-19T09:35:06.821Z,84.21
2019-05-19T09:36:06.810Z,85.33
2019-05-19T09:37:06.810Z,82.62
2019-05-19T09:38:06.795Z,81.41
2019-05-19T09:39:06.781Z,82.02
2019-05-19T09:40:06.772Z,81.27
2019-05-19T09:41:06.778Z,78.20
2019-05-19T09:42:06.740Z,78.38
2019-05-19T09:43:06.736Z,78.49
2019-05-19T09:44:06.725Z,81.95
2019-05-19T09:45:06.718Z,81.95
2019-05-19T09:46:06.712Z,83.32
2019-05-19T09:47:06.688Z,81.57
2019-05-19T09:48:06.679Z,80.52
2019-05-19T09:49:06.674Z,80.75
2019-05-19T09:50:06.661Z,77.13
2019-05-19T09:51:06.648Z,78.30
2019-05-19T09:52:06.642Z,77.90
2019-05-19T09:53:06.621Z,77.39
2019-05-19T09:54:06.626Z,76.63
2019-05-19T09:55:06.607Z,77.50
2019-05-19T09:56:06.594Z,78.25
2019-05-19T09:57:06.585Z,76.86
2019-05-19T09:58:06.615Z,78.81
2019-05-19T09:59:06.567Z,81.51
2019-05-19T10:00:06.599Z,82.56
2019-05-19T10:01:06.575Z,84.15
2019-05-19T10:02:06.574Z,86.10
2019-05-19T10:03:06.545Z,86.21
2019-05-19T10:04:07.149Z,87.38
2019-05-19T10:05:06.519Z,87.98
2019-05-19T10:06:06.495Z,87.32
2019-05-19T10:07:07.259Z,87.56
2019-05-19T10:08:06.465Z,87.36
2019-05-19T10:09:06.463Z,86.93
2019-05-19T10:10:06.444Z,88.29
2019-05-19T10:11:06.429Z,87.79
2019-05-19T10:12:06.424Z,89.10
2019-05-19T10:13:06.410Z,89.14
2019-05-19T10:14:06.407Z,88.74
2019-05-19T10:15:06.394Z,90.56
2019-05-19T10:16:06.376Z,90.92
2019-05-19T10:17:06.405Z,90.82
2019-05-19T10:18:06.359Z,89.95
2019-05-19T10:19:06.343Z,89.81
2019-05-19T10:20:06.332Z,89.56
2019-05-19T10:21:06.324Z,89.01
2019-05-19T10:22:06.309Z,87.19
2019-05-19T10:23:06.299Z,87.15
2019-05-19T10:24:06.283Z,86.27
2019-05-19T10:25:20.878Z,83.08
2019-05-19T10:26:07.270Z,85.14
2019-05-19T10:27:06.258Z,81.54
2019-05-19T10:28:06.242Z,79.83
2019-05-19T10:29:06.237Z,76.59
2019-05-19T10:30:06.223Z,78.51
2019-05-19T10:31:06.218Z,81.07
2019-05-19T10:32:06.205Z,80.63
2019-05-19T10:33:06.192Z,79.96
2019-05-19T10:34:06.187Z,81.53
2019-05-19T10:35:06.172Z,79.82
2019-05-19T10:36:06.153Z,81.53
2019-05-19T10:37:06.149Z,79.76
2019-05-19T10:38:06.140Z,79.93
2019-05-19T10:39:06.124Z,80.92
2019-05-19T10:40:06.119Z,82.13
2019-05-19T10:41:06.115Z,84.25
2019-05-19T10:42:06.147Z,82.98
2019-05-19T10:43:06.081Z,84.49
2019-05-19T10:44:06.071Z,85.66
2019-05-19T10:45:06.077Z,85.92
2019-05-19T10:46:06.048Z,84.77
2019-05-19T10:47:06.190Z,84.03
2019-05-19T10:48:06.030Z,84.19
2019-05-19T10:49:06.018Z,83.14
2019-05-19T10:50:06.003Z,82.94
2019-05-19T10:51:05.990Z,79.86
2019-05-19T10:52:05.979Z,80.46
2019-05-19T10:53:05.970Z,82.18
2019-05-19T10:54:05.964Z,79.76
2019-05-19T10:55:05.958Z,81.21
2019-05-19T10:56:05.940Z,81.95
2019-05-19T10:57:05.952Z,82.92
2019-05-19T10:58:05.976Z,83.56
2019-05-19T10:59:05.912Z,83.60
2019-05-19T11:00:05.898Z,83.54
2019-05-19T11:01:05.890Z,84.49
2019-05-19T11:02:05.888Z,84.23
2019-05-19T11:03:05.869Z,85.28
2019-05-19T11:04:05.855Z,85.88
2019-05-19T11:05:05.874Z,86.49
2019-05-19T11:06:05.840Z,86.49
2019-05-19T11:07:05.820Z,86.79
2019-05-19T11:08:05.802Z,86.49
2019-05-19T11:09:05.799Z,84.91
2019-05-19T11:10:05.789Z,86.02
2019-05-19T11:11:05.772Z,86.47
2019-05-19T11:12:05.784Z,88.33
2019-05-19T11:13:05.751Z,88.64
2019-05-19T11:14:05.740Z,89.70
2019-05-19T11:15:05.786Z,89.61
2019-05-19T11:16:05.716Z,89.87
2019-05-19T11:17:05.716Z,88.65
2019-05-19T11:18:06.536Z,87.84
2019-05-19T11:19:05.692Z,88.35
2019-05-19T11:20:05.687Z,88.75
2019-05-19T11:21:05.668Z,89.26
2019-05-19T11:22:05.657Z,88.45
2019-05-19T11:23:05.653Z,88.09
2019-05-19T11:24:05.630Z,88.75
2019-05-19T11:25:05.616Z,89.01
2019-05-19T11:26:05.675Z,88.61
2019-05-19T11:27:05.595Z,88.67
2019-05-19T11:28:05.586Z,88.18
2019-05-19T11:29:05.581Z,88.16
2019-05-19T11:30:05.573Z,86.10
2019-05-19T11:31:05.553Z,83.25
2019-05-19T11:32:05.547Z,82.30
2019-05-19T11:33:05.530Z,79.79
2019-05-19T11:34:05.534Z,79.74
2019-05-19T11:35:05.516Z,79.64
2019-05-19T11:36:05.495Z,80.71
2019-05-19T11:37:07.477Z,78.30
2019-05-19T11:38:05.504Z,78.63
2019-05-19T11:39:05.467Z,73.71
2019-05-19T11:40:05.464Z,75.19
2019-05-19T11:41:05.443Z,77.84
2019-05-19T11:42:05.449Z,81.13
2019-05-19T11:43:05.424Z,80.16
2019-05-19T11:44:05.407Z,80.30
2019-05-19T11:45:05.399Z,80.00
2019-05-19T11:46:05.391Z,81.51
2019-05-19T11:47:05.393Z,80.94
2019-05-19T11:48:05.375Z,80.04
2019-05-19T11:49:05.362Z,80.94
2019-05-19T11:50:05.347Z,81.24
2019-05-19T11:51:05.329Z,80.54
2019-05-19T11:52:05.359Z,81.15
2019-05-19T11:53:05.313Z,81.75
2019-05-19T11:54:05.303Z,81.55
2019-05-19T11:55:05.294Z,81.95
2019-05-19T11:56:07.299Z,81.82
2019-05-19T11:57:06.270Z,82.67
2019-05-19T11:58:05.274Z,83.12
2019-05-19T11:59:05.248Z,84.47
2019-05-19T12:00:05.240Z,85.52
2019-05-19T12:01:05.230Z,85.22
2019-05-19T12:02:05.216Z,85.36
2019-05-19T12:03:05.203Z,85.19
2019-05-19T12:04:05.694Z,84.83
2019-05-19T12:05:05.185Z,86.35
2019-05-19T12:06:05.182Z,86.76
2019-05-19T12:07:05.158Z,86.49
2019-05-19T12:08:05.163Z,87.66
2019-05-19T12:09:05.137Z,88.29
2019-05-19T12:10:05.127Z,88.09
2019-05-19T12:11:05.110Z,86.07
2019-05-19T12:12:05.112Z,85.03
2019-05-19T12:13:05.100Z,86.98
2019-05-19T12:14:05.080Z,86.37
2019-05-19T12:15:05.073Z,86.87
2019-05-19T12:16:05.057Z,87.04
2019-05-19T12:17:05.057Z,86.43
2019-05-19T12:18:05.040Z,86.39
2019-05-19T12:19:05.027Z,84.91
2019-05-19T12:20:05.017Z,84.71
2019-05-19T12:21:05.011Z,86.22
2019-05-19T12:22:05.010Z,84.87
2019-05-19T12:23:04.994Z,86.49
2019-05-19T12:24:05.003Z,87.05
2019-05-19T12:25:04.956Z,84.27
2019-05-19T12:26:04.942Z,84.63
2019-05-19T12:27:04.932Z,86.04
2019-05-19T12:28:04.932Z,85.90
2019-05-19T12:29:04.912Z,84.93
2019-05-19T12:30:04.902Z,83.82
2019-05-19T12:31:04.889Z,85.78
2019-05-19T12:32:04.897Z,84.37
2019-05-19T12:33:04.868Z,84.91
2019-05-19T12:34:04.864Z,85.48
2019-05-19T12:35:04.845Z,85.03
2019-05-19T12:36:04.847Z,85.30
2019-05-19T12:37:04.831Z,84.95
2019-05-19T12:38:04.816Z,85.72
2019-05-19T12:39:04.804Z,86.33
2019-05-19T12:40:04.816Z,83.97
2019-05-19T12:41:04.775Z,82.76
2019-05-19T12:42:04.772Z,83.99
2019-05-19T12:43:04.775Z,81.09
2019-05-19T12:44:04.753Z,78.01
2019-05-19T12:45:04.732Z,78.98
2019-05-19T12:46:14.876Z,79.04
2019-05-19T12:47:05.706Z,78.46
2019-05-19T12:48:04.707Z,77.46
2019-05-19T12:49:04.701Z,77.62
2019-05-19T12:50:04.705Z,72.87
2019-05-19T12:51:04.672Z,75.38
2019-05-19T12:52:04.657Z,73.84
2019-05-19T12:53:04.662Z,72.43
2019-05-19T12:54:04.669Z,72.33